Time;durP1;ratioP1;P1;durP2;ratioP2;P2;SDS_P1;SDS_P2;PMS_P1;PMS_P2;Temp;Humidity;BMP_temperature;BMP_pressure;BME280_temperature;BME280_humidity;BME280_pressure;Samples;Min_cycle;Max_cycle;Signal;HPM_P1;HPM_P2
2022/03/10 00:02:09;;;;;;;34.63;23.70;;;;;;;1.36;78.03;97328.55;1751518;80;21036;-84
2022/03/10 00:04:36;;;;;;;38.48;24.85;;;;;;;1.37;77.76;97337.86;1752193;82;21997;-84
2022/03/10 00:07:03;;;;;;;35.92;25.97;;;;;;;1.34;78.03;97341.91;1752443;82;20988;-84
2022/03/10 00:09:30;;;;;;;33.60;23.50;;;;;;;1.34;77.84;97347.03;1752199;82;21429;-84
2022/03/10 00:11:56;;;;;;;34.67;23.07;;;;;;;1.38;77.93;97348.00;1752222;82;21119;-84
2022/03/10 00:14:22;;;;;;;32.30;22.13;;;;;;;1.37;77.78;97348.11;1752508;82;21061;-84
2022/03/10 00:16:50;;;;;;;33.53;22.93;;;;;;;1.35;77.85;97357.63;1752269;82;21013;-84
2022/03/10 00:19:16;;;;;;;30.23;21.42;;;;;;;1.29;77.90;97352.89;1751189;82;21131;-85
2022/03/10 00:21:46;;;;;;;29.42;19.75;;;;;;;1.24;77.71;97357.05;1726700;82;21065;-84
2022/03/10 00:24:12;;;;;;;27.90;20.60;;;;;;;1.27;77.67;97363.23;1752219;82;21016;-84
2022/03/10 00:26:38;;;;;;;24.65;17.90;;;;;;;1.28;77.56;97362.31;1752284;82;20976;-84
2022/03/10 00:29:05;;;;;;;23.70;15.63;;;;;;;1.28;77.42;97366.16;1752049;82;21401;-84
2022/03/10 00:31:31;;;;;;;28.45;18.32;;;;;;;1.24;77.13;97362.16;1752337;82;21073;-84
2022/03/10 00:33:57;;;;;;;23.05;15.45;;;;;;;1.17;76.92;97362.22;1752083;82;21124;-84
2022/03/10 00:36:23;;;;;;;27.70;19.50;;;;;;;0.91;77.15;97325.50;1752161;82;22017;-84
2022/03/10 00:38:50;;;;;;;29.32;18.75;;;;;;;1.10;76.96;97364.80;1752602;82;21046;-85
2022/03/10 00:41:15;;;;;;;23.42;16.17;;;;;;;1.06;76.81;97367.20;1752561;82;21080;-84
2022/03/10 00:43:41;;;;;;;27.87;17.92;;;;;;;1.02;76.60;97367.86;1752288;82;21432;-84
2022/03/10 00:46:07;;;;;;;27.40;17.05;;;;;;;0.96;76.15;97365.67;1752360;82;21081;-84
2022/03/10 00:48:32;;;;;;;27.45;18.12;;;;;;;0.93;76.03;97362.04;1752161;82;21180;-85
2022/03/10 00:50:58;;;;;;;25.08;17.12;;;;;;;0.93;75.95;97367.62;1727396;82;21028;-85
2022/03/10 00:53:24;;;;;;;20.62;14.18;;;;;;;0.77;75.38;97346.02;1752125;82;20965;-84
2022/03/10 00:55:50;;;;;;;20.35;14.13;;;;;;;0.84;74.71;97375.44;1751930;81;20993;-84
2022/03/10 00:58:16;;;;;;;20.80;13.98;;;;;;;0.79;74.53;97376.98;1752334;82;21443;-84
2022/03/10 01:00:41;;;;;;;21.05;14.65;;;;;;;0.78;74.55;97374.52;1752178;82;21016;-84
2022/03/10 01:03:07;;;;;;;22.98;16.17;;;;;;;0.77;74.40;97373.70;1752111;82;21016;-84
2022/03/10 01:05:33;;;;;;;25.68;17.20;;;;;;;0.70;74.15;97385.26;1752316;82;21507;-84
2022/03/10 01:07:59;;;;;;;24.50;16.15;;;;;;;0.67;74.32;97376.95;1752321;81;21403;-84
2022/03/10 01:10:25;;;;;;;24.23;15.45;;;;;;;0.65;74.57;97380.05;1752415;82;21008;-84
2022/03/10 01:12:51;;;;;;;24.12;15.63;;;;;;;0.60;74.66;97378.60;1751719;82;21024;-84
2022/03/10 01:15:21;;;;;;;22.70;15.25;;;;;;;0.55;74.53;97377.26;1752306;82;20962;-84
2022/03/10 01:17:48;;;;;;;23.12;15.08;;;;;;;0.45;74.36;97374.89;1752233;82;20978;-84
2022/03/10 01:20:14;;;;;;;25.50;15.70;;;;;;;0.42;74.37;97382.30;1751592;82;22077;-84
2022/03/10 01:22:40;;;;;;;24.72;16.05;;;;;;;;;;1752214;81;21045;-84
2022/03/10 01:25:07;;;;;;;19.92;11.75;;;;;;;0.36;74.66;97389.55;1752478;82;21013;-84
2022/03/10 01:27:33;;;;;;;16.40;11.05;;;;;;;0.39;73.66;97380.40;1752556;82;21016;-84
2022/03/10 01:29:59;;;;;;;18.25;12.23;;;;;;;0.40;73.15;97381.58;1752852;82;21051;-84
2022/03/10 01:32:25;;;;;;;16.12;11.22;;;;;;;0.38;72.84;97384.70;1726999;82;21430;-84
2022/03/10 01:34:52;;;;;;;15.23;9.98;;;;;;;0.39;72.42;97391.91;1751921;82;21064;-84
2022/03/10 01:37:19;;;;;;;16.52;10.53;;;;;;;0.38;71.71;97389.81;1752325;82;21008;-84
2022/03/10 01:39:45;;;;;;;16.90;10.75;;;;;;;0.39;71.51;97395.28;1752352;82;21053;-85
2022/03/10 01:42:11;;;;;;;14.58;10.45;;;;;;;0.39;71.50;97402.95;1750803;82;21092;-84
2022/03/10 01:44:37;;;;;;;12.47;9.08;;;;;;;0.39;70.84;97400.86;1751108;82;21483;-84
2022/03/10 01:47:05;;;;;;;11.70;8.30;;;;;;;0.31;70.46;97378.30;1752141;82;21053;-84
2022/03/10 01:49:33;;;;;;;10.58;7.22;;;;;;;0.38;69.01;97388.98;1751101;80;21101;-84
2022/03/10 01:52:00;;;;;;;10.43;7.15;;;;;;;0.33;69.86;97402.06;1752257;82;21131;-84
2022/03/10 01:54:26;;;;;;;12.13;8.30;;;;;;;0.29;68.34;97400.13;1752487;82;21096;-84
2022/03/10 01:56:51;;;;;;;12.63;8.93;;;;;;;0.26;68.72;97413.09;1752662;82;21057;-84
2022/03/10 01:59:18;;;;;;;12.55;9.08;;;;;;;0.27;68.56;97413.92;1752268;82;21041;-84
2022/03/10 02:01:44;;;;;;;12.85;9.00;;;;;;;0.25;68.24;97414.47;1752371;82;21024;-84
2022/03/10 02:04:10;;;;;;;16.02;10.58;;;;;;;0.23;68.71;97422.69;1752039;82;21036;-84
2022/03/10 02:06:35;;;;;;;16.32;10.48;;;;;;;0.23;69.09;97430.36;1752310;81;21502;-84
2022/03/10 02:11:47;;;;;;;16.15;10.48;;;;;;;0.22;69.56;97437.66;1731051;82;21427;-84
2022/03/10 02:19:43;;;;;;;15.83;11.08;;;;;;;0.04;70.01;97437.48;1752407;82;21037;-84
2022/03/10 02:22:11;;;;;;;14.90;10.82;;;;;;;0.02;69.61;97433.75;1750998;82;21371;-84
2022/03/10 02:24:38;;;;;;;14.53;9.50;;;;;;;0.01;69.26;97434.66;1738652;82;21005;-84
2022/03/10 02:27:22;;;;;;;12.53;7.75;;;;;;;0.01;68.99;97433.39;1738823;82;20980;-83
2022/03/10 02:29:50;;;;;;;14.80;9.83;;;;;;;0.02;69.03;97442.69;1737380;82;21006;-83
2022/03/10 02:32:16;;;;;;;11.33;7.45;;;;;;;0.02;69.25;97450.36;1738635;82;21001;-84
2022/03/10 02:34:42;;;;;;;14.45;9.60;;;;;;;0.01;68.01;97454.28;1738760;82;21006;-84
2022/03/10 02:37:08;;;;;;;14.47;9.55;;;;;;;-0.05;68.51;97457.55;1738887;82;20954;-84
2022/03/10 02:39:34;;;;;;;12.07;8.13;;;;;;;-0.08;69.06;97464.57;1738930;82;20998;-84
2022/03/10 02:42:00;;;;;;;11.03;9.15;;;;;;;-0.06;68.37;97465.30;1738665;82;21009;-84
2022/03/10 02:44:26;;;;;;;13.35;8.63;;;;;;;-0.07;68.16;97471.33;1738713;82;20962;-83
2022/03/10 02:46:52;;;;;;;16.15;9.93;;;;;;;-0.12;68.38;97474.16;1738738;82;21333;-84
2022/03/10 02:49:18;;;;;;;14.03;10.35;;;;;;;-0.14;68.22;97477.72;1733822;81;21105;-83
2022/03/10 02:51:45;;;;;;;19.73;12.37;;;;;;;-0.17;68.69;97475.31;1738256;82;20986;-84
2022/03/10 02:54:10;;;;;;;16.87;11.08;;;;;;;-0.16;68.93;97481.64;1738741;82;21028;-83
2022/03/10 02:56:37;;;;;;;20.48;13.43;;;;;;;-0.15;69.54;97483.28;1738755;82;21057;-83
2022/03/10 02:59:03;;;;;;;19.15;13.62;;;;;;;-0.18;70.11;97484.70;1738696;82;21412;-84
2022/03/10 03:01:29;;;;;;;22.82;13.62;;;;;;;-0.24;70.27;97490.18;1738837;82;20973;-84
2022/03/10 03:03:55;;;;;;;22.93;15.32;;;;;;;-0.27;70.64;97489.08;1738877;82;21401;-84
2022/03/10 03:06:21;;;;;;;24.20;15.45;;;;;;;-0.30;71.27;97494.37;1738713;82;21057;-83
2022/03/10 03:08:47;;;;;;;24.87;16.48;;;;;;;-0.32;71.28;97503.86;1738720;82;21005;-84
2022/03/10 03:11:13;;;;;;;23.85;15.60;;;;;;;-0.33;71.63;97496.65;1738710;82;21009;-83
2022/03/10 03:13:39;;;;;;;22.55;14.50;;;;;;;-0.34;71.63;97503.91;1717641;82;21021;-84
2022/03/10 03:16:05;;;;;;;20.48;13.62;;;;;;;-0.42;72.33;97500.16;1738815;82;20982;-83
2022/03/10 03:18:31;;;;;;;23.50;16.10;;;;;;;-0.45;72.49;97504.17;1738910;82;21104;-83
2022/03/10 03:20:56;;;;;;;22.75;15.28;;;;;;;-0.46;72.24;97505.91;1717679;82;21137;-84
2022/03/10 03:23:23;;;;;;;23.32;15.03;;;;;;;-0.44;72.21;97503.27;1738709;82;21432;-84
2022/03/10 03:25:50;;;;;;;19.17;13.00;;;;;;;-0.44;72.15;97499.44;1738719;82;21093;-83
2022/03/10 03:28:16;;;;;;;22.32;15.03;;;;;;;-0.44;72.13;97502.81;1738589;82;21574;-84
2022/03/10 03:30:42;;;;;;;21.00;14.55;;;;;;;-0.41;72.08;97509.47;1738895;82;20977;-84
2022/03/10 03:33:08;;;;;;;24.27;13.85;;;;;;;-0.40;71.87;97501.72;1738785;82;21008;-83
2022/03/10 03:35:34;;;;;;;16.77;11.57;;;;;;;-0.39;71.47;97505.09;1738414;82;21109;-83
2022/03/10 03:37:59;;;;;;;19.25;12.63;;;;;;;-0.37;70.91;97509.20;1738855;82;21045;-84
2022/03/10 03:40:25;;;;;;;19.30;12.78;;;;;;;-0.37;70.63;97516.05;1738881;82;20974;-84
2022/03/10 03:42:51;;;;;;;19.37;12.80;;;;;;;-0.33;70.88;97513.25;1738741;82;20981;-84
2022/03/10 03:45:17;;;;;;;15.88;11.22;;;;;;;-0.33;70.49;97517.08;1738749;82;21036;-84
2022/03/10 03:47:42;;;;;;;19.12;12.70;;;;;;;-0.32;69.93;97516.63;1738802;82;20962;-84
2022/03/10 03:50:10;;;;;;;15.38;11.08;;;;;;;-0.33;69.63;97520.91;1738372;82;21109;-84
2022/03/10 03:52:36;;;;;;;17.73;11.45;;;;;;;-0.36;69.41;97527.45;1738795;82;21029;-83
2022/03/10 03:55:02;;;;;;;17.62;12.20;;;;;;;-0.38;69.59;97526.71;1738643;82;21372;-84
2022/03/10 03:57:28;;;;;;;11.75;8.10;;;;;;;-0.34;69.13;97527.36;1738584;82;21001;-84
2022/03/10 03:59:53;;;;;;;17.77;12.23;;;;;;;-0.34;69.13;97527.36;1738635;82;21128;-84
2022/03/10 04:02:19;;;;;;;15.13;10.40;;;;;;;-0.35;69.14;97538.03;1738991;82;21125;-84
2022/03/10 04:04:45;;;;;;;19.87;11.83;;;;;;;-0.35;68.88;97541.03;1738683;82;20973;-84
2022/03/10 04:07:11;;;;;;;17.10;12.37;;;;;;;-0.42;68.92;97538.02;1738790;82;21400;-84
2022/03/10 04:09:37;;;;;;;16.10;11.35;;;;;;;-0.41;69.49;97545.22;1738566;82;20997;-83
2022/03/10 04:12:03;;;;;;;17.95;12.13;;;;;;;-0.45;69.12;97548.86;1738843;82;21001;-84
2022/03/10 04:14:29;;;;;;;15.18;9.80;;;;;;;-0.48;69.18;97549.03;1738804;82;21005;-83
2022/03/10 04:16:54;;;;;;;15.20;10.55;;;;;;;-0.48;69.20;97547.30;1738596;82;21330;-84
2022/03/10 04:19:20;;;;;;;17.45;11.25;;;;;;;-0.49;69.55;97552.05;1738830;82;20996;-83
2022/03/10 04:21:46;;;;;;;21.27;14.23;;;;;;;-0.52;69.76;97550.09;1738899;82;21376;-84
2022/03/10 04:24:12;;;;;;;21.45;14.25;;;;;;;-0.53;69.90;97556.11;1749227;82;21072;-84
2022/03/10 04:26:39;;;;;;;22.98;13.98;;;;;;;-0.54;70.13;97564.67;1752321;82;21036;-84
2022/03/10 04:29:04;;;;;;;22.07;15.25;;;;;;;-0.53;70.59;97568.41;1752240;82;21340;-84
2022/03/10 04:31:30;;;;;;;23.92;14.78;;;;;;;-0.50;70.83;97567.42;1752288;82;21025;-84
2022/03/10 04:33:56;;;;;;;20.10;13.28;;;;;;;-0.55;70.93;97577.89;1752414;82;20969;-84
2022/03/10 04:36:22;;;;;;;19.40;13.35;;;;;;;-0.59;71.08;97577.70;1752567;82;21308;-84
2022/03/10 04:38:48;;;;;;;19.48;12.88;;;;;;;-0.61;71.17;97578.23;1752105;82;21008;-84
2022/03/10 04:41:14;;;;;;;20.35;13.55;;;;;;;-0.64;71.01;97587.34;1752312;82;21310;-84
2022/03/10 04:43:40;;;;;;;16.37;11.12;;;;;;;-0.71;70.87;97602.60;1752335;82;21455;-84
2022/03/10 04:46:06;;;;;;;15.80;10.72;;;;;;;-0.82;70.38;97598.06;1752144;82;20957;-84
2022/03/10 04:48:31;;;;;;;14.70;10.45;;;;;;;-1.12;70.41;97562.72;1750762;80;20988;-84
2022/03/10 04:50:59;;;;;;;14.58;11.43;;;;;;;-0.95;70.13;97599.19;1751841;82;21167;-84
2022/03/10 04:53:24;;;;;;;12.28;9.65;;;;;;;-0.97;70.35;97603.55;1752224;82;21100;-83
2022/03/10 04:55:50;;;;;;;16.65;10.75;;;;;;;-0.97;70.41;97608.66;1752279;82;21420;-83
2022/03/10 04:58:16;;;;;;;12.25;8.88;;;;;;;-0.96;70.23;97613.30;1752195;82;21120;-84
2022/03/10 05:00:41;;;;;;;17.75;12.43;;;;;;;-0.99;70.30;97610.89;1752157;81;21032;-85
2022/03/10 05:03:07;;;;;;;15.98;11.18;;;;;;;-1.05;70.34;97612.04;1751558;82;21048;-83
2022/03/10 05:05:33;;;;;;;17.57;12.90;;;;;;;-1.03;70.47;97619.16;1752015;82;21479;-84
2022/03/10 05:07:59;;;;;;;18.30;11.68;;;;;;;-1.05;70.60;97615.05;1752196;82;21072;-84
2022/03/10 05:10:24;;;;;;;17.32;12.43;;;;;;;-1.07;70.36;97617.68;1752193;82;21044;-84
2022/03/10 05:12:53;;;;;;;16.12;11.43;;;;;;;-1.06;70.61;97618.05;1752371;82;21080;-84
2022/03/10 05:15:20;;;;;;;13.90;10.15;;;;;;;-1.33;70.61;97583.77;1752141;82;21139;-83
2022/03/10 05:17:46;;;;;;;16.15;10.98;;;;;;;-1.10;70.58;97620.84;1752164;82;21072;-83
2022/03/10 05:20:12;;;;;;;17.75;12.98;;;;;;;-1.16;70.67;97627.52;1752229;82;21151;-83
2022/03/10 05:22:48;;;;;;;16.60;12.25;;;;;;;-1.19;70.34;97632.78;1751965;82;21039;-84
2022/03/10 05:25:14;;;;;;;17.30;12.98;;;;;;;-1.22;70.43;97636.32;1752054;82;21084;-83
2022/03/10 05:27:42;;;;;;;17.32;12.33;;;;;;;-1.20;70.55;97645.98;1752196;82;21502;-83
2022/03/10 05:30:08;;;;;;;14.53;12.68;;;;;;;-1.17;70.67;97644.55;1752202;82;21049;-84
2022/03/10 05:32:34;;;;;;;14.65;11.95;;;;;;;-1.16;70.11;97645.37;1752238;82;21056;-83
2022/03/10 05:35:00;;;;;;;18.10;12.78;;;;;;;-1.23;70.59;97648.70;1752217;82;21056;-83
2022/03/10 05:37:27;;;;;;;16.45;12.03;;;;;;;-1.31;70.50;97658.45;1752192;82;20982;-83
2022/03/10 05:39:53;;;;;;;17.60;12.65;;;;;;;-1.61;70.41;97613.67;1752119;82;20997;-83
2022/03/10 05:42:18;;;;;;;15.53;11.45;;;;;;;-1.36;70.58;97656.59;1752174;82;21294;-84
2022/03/10 05:44:44;;;;;;;14.98;11.35;;;;;;;-1.34;70.43;97665.80;1752318;81;21007;-83
2022/03/10 05:47:10;;;;;;;17.17;11.80;;;;;;;-1.34;70.25;97679.83;1752062;82;20996;-84
2022/03/10 05:49:36;;;;;;;16.42;11.50;;;;;;;-1.62;70.70;97633.69;1750953;80;21288;-83
2022/03/10 05:52:03;;;;;;;13.62;11.57;;;;;;;-1.53;70.88;97678.64;1752224;81;21093;-83
2022/03/10 05:54:29;;;;;;;15.48;12.20;;;;;;;-1.58;70.86;97681.06;1752060;82;21009;-83
2022/03/10 05:56:54;;;;;;;13.98;11.50;;;;;;;-1.62;71.00;97677.02;1752330;82;21029;-83
2022/03/10 05:59:20;;;;;;;15.28;12.00;;;;;;;-1.60;71.21;97684.13;1752205;82;20989;-84
2022/03/10 06:01:46;;;;;;;12.80;10.82;;;;;;;-1.58;71.27;97691.25;1752381;82;21016;-83
2022/03/10 06:04:12;;;;;;;16.87;11.80;;;;;;;-1.65;71.17;97684.78;1752252;82;21348;-83
2022/03/10 06:06:38;;;;;;;15.03;12.58;;;;;;;-1.69;71.27;97690.94;1752185;82;22196;-83
2022/03/10 06:09:03;;;;;;;15.18;11.15;;;;;;;-1.69;71.17;97704.50;1752393;82;20969;-83
2022/03/10 06:11:29;;;;;;;13.13;11.03;;;;;;;-1.67;71.20;97704.43;1752272;82;21032;-83
2022/03/10 06:13:55;;;;;;;15.38;12.18;;;;;;;-1.63;70.99;97704.64;1752158;82;21980;-83
2022/03/10 06:16:21;;;;;;;14.35;11.03;;;;;;;-1.63;70.91;97705.50;1752436;82;21056;-83
2022/03/10 06:18:47;;;;;;;16.00;14.25;;;;;;;-1.60;71.06;97708.34;1751705;82;20993;-84
2022/03/10 06:21:13;;;;;;;12.63;9.70;;;;;;;-1.56;71.07;97706.02;1751937;82;21075;-83
2022/03/10 06:23:39;;;;;;;13.45;10.43;;;;;;;-1.51;70.41;97721.91;1750145;81;21028;-83
2022/03/10 06:26:05;;;;;;;15.43;11.35;;;;;;;-1.59;70.01;97718.92;1746208;82;20997;-84
2022/03/10 06:28:31;;;;;;;9.58;8.00;;;;;;;-1.68;70.10;97720.17;1746210;82;21070;-83
2022/03/10 06:30:57;;;;;;;11.88;10.28;;;;;;;-1.73;70.08;97720.84;1746231;82;22052;-83
2022/03/10 06:33:23;;;;;;;12.30;9.78;;;;;;;-1.77;70.24;97725.72;1746086;82;20978;-84
2022/03/10 06:35:48;;;;;;;15.08;11.28;;;;;;;-1.84;69.55;97737.08;1746349;82;20946;-83
2022/03/10 06:38:14;;;;;;;17.00;13.05;;;;;;;-1.89;70.05;97733.94;1746216;82;21384;-83
2022/03/10 06:40:40;;;;;;;16.00;12.98;;;;;;;-1.87;70.13;97741.88;1743791;82;21013;-83
2022/03/10 06:43:06;;;;;;;17.80;11.80;;;;;;;-2.04;70.15;97705.36;1746824;82;21001;-84
2022/03/10 06:45:32;;;;;;;16.48;11.65;;;;;;;-1.77;70.27;97747.83;1719907;82;21009;-83
2022/03/10 06:47:58;;;;;;;16.12;12.00;;;;;;;-1.82;69.60;97757.77;1746439;82;21412;-83
2022/03/10 06:50:25;;;;;;;14.07;10.88;;;;;;;-1.82;69.60;97757.77;1745965;82;21136;-84
2022/03/10 06:52:56;;;;;;;12.75;11.20;;;;;;;-1.79;70.01;97756.83;1746125;82;21045;-83
2022/03/10 06:55:21;;;;;;;14.47;12.50;;;;;;;-1.77;69.63;97759.30;1745773;82;21039;-83
2022/03/10 06:57:47;;;;;;;15.30;10.35;;;;;;;-1.84;69.66;97759.56;1746006;82;20989;-83
2022/03/10 07:00:13;;;;;;;16.12;12.35;;;;;;;-1.80;69.69;97767.88;1744692;82;21004;-83
2022/03/10 07:02:39;;;;;;;14.35;11.10;;;;;;;-1.79;69.66;97767.02;1746294;82;21004;-83
2022/03/10 07:05:07;;;;;;;15.05;11.85;;;;;;;-1.98;69.00;97735.17;1718792;82;21380;-83
2022/03/10 07:07:33;;;;;;;12.10;10.03;;;;;;;-1.75;68.49;97770.23;1745879;82;21024;-84
2022/03/10 07:09:58;;;;;;;13.18;9.70;;;;;;;-1.74;68.21;97776.98;1746547;82;21096;-83
2022/03/10 07:12:27;;;;;;;13.95;9.23;;;;;;;-1.72;67.18;97774.73;1746349;82;21383;-84
2022/03/10 07:14:53;;;;;;;10.88;9.13;;;;;;;-1.67;66.84;97780.44;1746179;82;21972;-83
2022/03/10 07:17:19;;;;;;;13.35;10.25;;;;;;;-1.59;66.43;97776.27;1719254;82;21013;-83
2022/03/10 07:19:48;;;;;;;12.47;9.73;;;;;;;-1.53;66.86;97781.06;1746212;82;21080;-83
2022/03/10 07:22:18;;;;;;;11.93;9.33;;;;;;;-1.50;65.98;97789.83;1745778;82;21028;-83
2022/03/10 07:24:45;;;;;;;11.53;9.15;;;;;;;-1.50;65.41;97792.38;1747020;82;20970;-83
2022/03/10 07:27:11;;;;;;;11.95;9.33;;;;;;;-1.55;65.91;97791.33;1747059;82;21088;-83
2022/03/10 07:29:37;;;;;;;11.18;8.90;;;;;;;-1.53;65.84;97794.62;1746965;82;21056;-83
2022/03/10 07:32:03;;;;;;;15.23;10.18;;;;;;;-1.56;65.36;97796.05;1746939;82;21428;-84
2022/03/10 07:34:29;;;;;;;12.00;9.68;;;;;;;-1.57;65.56;97789.76;1747042;82;20970;-83
2022/03/10 07:36:55;;;;;;;16.42;10.88;;;;;;;-1.52;65.79;97800.10;1747073;82;21039;-83
2022/03/10 07:39:20;;;;;;;16.50;11.78;;;;;;;-1.43;65.96;97803.12;1747022;82;21458;-83
2022/03/10 07:41:46;;;;;;;16.27;11.15;;;;;;;-1.46;65.99;97802.83;1747118;82;21081;-83
2022/03/10 07:44:12;;;;;;;14.93;11.65;;;;;;;-1.42;65.62;97808.16;1747180;82;21068;-83
2022/03/10 07:46:37;;;;;;;16.20;11.78;;;;;;;-1.41;66.22;97814.91;1727721;82;20992;-83
2022/03/10 07:49:08;;;;;;;14.07;11.35;;;;;;;-1.37;65.77;97811.75;1746968;82;21409;-83
2022/03/10 07:51:31;;;;;;;15.32;11.78;;;;;;;-1.34;65.87;97814.97;1744832;82;21048;-83
2022/03/10 07:53:57;;;;;;;14.73;10.93;;;;;;;-1.37;65.40;97821.50;1747539;80;21039;-84
2022/03/10 07:56:23;;;;;;;14.98;11.05;;;;;;;-1.46;64.63;97824.95;1741439;81;20973;-83
2022/03/10 07:58:48;;;;;;;13.83;10.15;;;;;;;-1.55;64.95;97825.74;1747151;82;20984;-84
2022/03/10 08:01:14;;;;;;;13.13;10.93;;;;;;;-1.52;64.91;97828.59;1747113;82;21052;-83
2022/03/10 08:03:40;;;;;;;13.83;10.23;;;;;;;-1.41;64.89;97826.38;1747099;82;21044;-83
2022/03/10 08:06:06;;;;;;;12.30;9.00;;;;;;;-1.32;64.35;97837.39;1747222;82;21024;-84
2022/03/10 08:08:32;;;;;;;14.40;9.48;;;;;;;-1.36;63.23;97835.08;1747211;82;21024;-83
2022/03/10 08:10:57;;;;;;;10.10;7.97;;;;;;;-1.31;63.43;97832.67;1747164;82;21383;-83
2022/03/10 08:13:26;;;;;;;11.55;9.68;;;;;;;-1.27;61.90;97831.65;1747107;82;21050;-84
2022/03/10 08:15:53;;;;;;;12.98;8.78;;;;;;;-1.21;62.59;97835.63;1747217;82;20994;-84
2022/03/10 08:18:20;;;;;;;12.58;9.30;;;;;;;-1.14;62.29;97838.69;1747024;82;21371;-83
2022/03/10 08:20:47;;;;;;;10.03;8.73;;;;;;;-1.04;62.42;97841.19;1747168;82;21033;-83
2022/03/10 08:23:12;;;;;;;10.32;7.87;;;;;;;-0.95;61.97;97841.58;1747241;82;21040;-83
2022/03/10 08:25:38;;;;;;;10.85;8.10;;;;;;;-0.92;61.92;97840.14;1748426;82;21495;-83
2022/03/10 08:28:05;;;;;;;10.78;8.05;;;;;;;-0.99;61.13;97831.12;1748492;82;21025;-83
2022/03/10 08:30:31;;;;;;;9.73;7.53;;;;;;;-1.10;60.75;97834.66;1748704;82;21036;-84
2022/03/10 08:32:57;;;;;;;12.35;8.95;;;;;;;-1.04;60.19;97827.98;1748601;82;20977;-83
2022/03/10 08:35:23;;;;;;;12.82;9.18;;;;;;;-1.04;60.84;97831.80;1748652;82;21004;-84
2022/03/10 08:37:50;;;;;;;11.93;8.25;;;;;;;-0.99;61.97;97836.22;1748948;82;20961;-83
2022/03/10 08:40:17;;;;;;;9.60;6.45;;;;;;;-0.86;61.44;97826.25;1748641;82;21016;-83
2022/03/10 08:42:44;;;;;;;11.30;7.45;;;;;;;-0.80;58.95;97834.07;1748711;82;21005;-83
2022/03/10 08:45:10;;;;;;;9.43;7.17;;;;;;;-0.81;59.95;97841.36;1719380;82;21036;-83
2022/03/10 08:47:36;;;;;;;8.95;6.12;;;;;;;-0.88;58.29;97836.98;1748778;82;21009;-83
2022/03/10 08:50:02;;;;;;;8.60;6.70;;;;;;;-0.93;57.10;97832.11;1748564;82;21424;-83
2022/03/10 08:52:28;;;;;;;9.05;5.78;;;;;;;-0.97;58.07;97848.94;1748437;82;21108;-83
2022/03/10 08:54:54;;;;;;;12.05;8.03;;;;;;;-1.07;56.71;97844.71;1742404;81;21133;-82
2022/03/10 08:57:20;;;;;;;9.08;7.47;;;;;;;-1.12;57.80;97851.77;1748566;82;21037;-83
2022/03/10 08:59:45;;;;;;;9.48;7.03;;;;;;;-1.05;58.84;97847.19;1748975;82;20957;-83
2022/03/10 09:02:12;;;;;;;9.33;7.00;;;;;;;-0.96;58.52;97850.13;1748759;82;20977;-83
2022/03/10 09:04:39;;;;;;;9.10;6.87;;;;;;;-0.94;58.63;97843.67;1748659;82;21008;-83
2022/03/10 09:07:05;;;;;;;9.35;6.65;;;;;;;-0.86;58.25;97844.11;1748577;82;20978;-84
2022/03/10 09:09:30;;;;;;;8.18;6.20;;;;;;;-0.79;56.61;97849.30;1748724;82;21430;-83
2022/03/10 09:11:57;;;;;;;8.45;7.05;;;;;;;-0.71;56.68;97847.63;1748621;82;21028;-84
2022/03/10 09:14:23;;;;;;;9.93;6.30;;;;;;;-0.71;56.60;97847.19;1748571;82;21033;-84
2022/03/10 09:16:51;;;;;;;7.97;5.97;;;;;;;-0.70;56.94;97851.39;1748780;82;20998;-83
2022/03/10 09:19:17;;;;;;;8.70;6.80;;;;;;;-0.69;55.20;97844.55;1719327;82;21021;-83
2022/03/10 09:21:43;;;;;;;8.80;6.20;;;;;;;-0.62;56.36;97848.47;1748720;82;21034;-83
2022/03/10 09:24:10;;;;;;;8.30;5.97;;;;;;;-0.53;55.03;97843.33;1749422;81;20997;-83
2022/03/10 09:26:38;;;;;;;9.13;6.58;;;;;;;-0.48;54.72;97851.61;1751759;82;21411;-84
2022/03/10 09:29:04;;;;;;;8.20;6.05;;;;;;;-0.54;54.19;97850.62;1752169;82;21027;-83
2022/03/10 09:31:31;;;;;;;9.00;6.40;;;;;;;-0.54;54.67;97858.28;1752114;82;21063;-83
2022/03/10 09:33:56;;;;;;;9.35;6.65;;;;;;;-0.57;53.52;97860.54;1752021;82;21406;-83
2022/03/10 09:36:22;;;;;;;8.28;6.25;;;;;;;-0.55;53.19;97858.73;1752368;82;21067;-83
2022/03/10 09:38:48;;;;;;;8.05;6.05;;;;;;;-0.49;55.13;97857.59;1750912;82;21045;-83
2022/03/10 09:41:16;;;;;;;8.33;6.37;;;;;;;-0.45;53.61;97864.22;1752071;82;21412;-83
2022/03/10 09:43:42;;;;;;;9.83;7.00;;;;;;;-0.65;54.61;97820.55;1727104;82;21064;-84
2022/03/10 09:46:09;;;;;;;7.45;5.50;;;;;;;-0.32;54.23;97863.97;1752188;82;21408;-83
2022/03/10 09:48:36;;;;;;;8.88;6.67;;;;;;;-0.21;53.66;97854.46;1751376;82;21104;-83
2022/03/10 09:51:03;;;;;;;9.20;6.50;;;;;;;-0.13;53.72;97863.39;1751926;82;21029;-83
2022/03/10 09:53:31;;;;;;;6.67;6.05;;;;;;;-0.14;53.49;97865.58;1752272;82;21060;-83
2022/03/10 09:55:57;;;;;;;7.53;5.25;;;;;;;-0.16;52.59;97861.45;1751253;82;21005;-83
2022/03/10 09:58:23;;;;;;;9.90;6.28;;;;;;;-0.13;51.33;97855.73;1752162;82;20974;-83
2022/03/10 10:00:49;;;;;;;8.45;6.08;;;;;;;-0.10;52.08;97865.78;1751899;82;20989;-84
2022/03/10 10:03:15;;;;;;;7.67;5.62;;;;;;;-0.04;52.82;97866.73;1751082;82;20970;-83
2022/03/10 10:05:40;;;;;;;7.60;5.65;;;;;;;0.05;51.40;97878.67;1752456;82;21009;-83
2022/03/10 10:08:14;;;;;;;8.38;5.92;;;;;;;0.01;50.13;97877.19;1752200;82;20989;-83
2022/03/10 10:10:43;;;;;;;5.67;5.12;;;;;;;-0.03;50.30;97876.50;1727326;82;21092;-83
2022/03/10 10:13:09;;;;;;;7.05;4.83;;;;;;;-0.10;50.36;97881.57;1751500;82;21072;-83
2022/03/10 10:15:38;;;;;;;8.13;5.65;;;;;;;-0.02;51.36;97874.31;1752254;82;21444;-83
2022/03/10 10:18:05;;;;;;;7.65;6.00;;;;;;;0.07;50.96;97875.58;1752040;82;20942;-83
2022/03/10 10:20:35;;;;;;;7.45;5.60;;;;;;;0.08;50.85;97882.34;1727416;82;21072;-83
2022/03/10 10:23:25;;;;;;;8.53;6.47;;;;;;;0.17;50.73;97874.20;1751768;81;21068;-83
2022/03/10 10:25:55;;;;;;;8.63;6.28;;;;;;;0.19;50.73;97879.60;1752236;82;21029;-83
2022/03/10 10:28:27;;;;;;;9.58;6.25;;;;;;;0.12;51.96;97878.71;1750520;82;21068;-83
2022/03/10 10:31:03;;;;;;;7.10;5.40;;;;;;;0.22;51.35;97883.27;1751365;82;21009;-83
2022/03/10 10:33:32;;;;;;;7.53;6.17;;;;;;;0.27;50.55;97878.73;1750553;82;21056;-83
2022/03/10 10:36:24;;;;;;;7.42;6.10;;;;;;;0.27;50.71;97880.46;1727484;82;21013;-83
2022/03/10 10:38:53;;;;;;;7.95;5.95;;;;;;;0.17;51.13;97862.25;1752339;82;21024;-83
2022/03/10 10:41:25;;;;;;;8.68;5.92;;;;;;;0.36;51.26;97883.00;1751946;82;21010;-84
2022/03/10 10:44:15;;;;;;;7.30;5.60;;;;;;;0.36;50.88;97885.55;1752087;82;21415;-83
2022/03/10 10:46:43;;;;;;;8.43;5.80;;;;;;;0.33;50.18;97889.11;1752084;82;21139;-84
2022/03/10 10:49:16;;;;;;;7.10;6.08;;;;;;;0.37;50.15;97897.43;1750424;82;21045;-83
2022/03/10 10:51:48;;;;;;;8.60;6.70;;;;;;;0.38;50.97;97887.58;1752063;82;21120;-83
2022/03/10 10:54:27;;;;;;;8.70;5.95;;;;;;;0.49;51.68;97884.82;1750473;82;21012;-84
2022/03/10 10:57:02;;;;;;;7.12;5.30;;;;;;;0.55;49.50;97870.41;1751927;82;21036;-83
2022/03/10 10:59:39;;;;;;;7.08;6.33;;;;;;;0.64;50.56;97888.25;1752114;82;21085;-83
2022/03/10 11:02:11;;;;;;;6.92;5.42;;;;;;;0.67;49.37;97884.73;1751520;82;21096;-83
2022/03/10 11:04:39;;;;;;;6.75;5.58;;;;;;;0.69;49.08;97887.57;1752306;82;21064;-83
2022/03/10 11:07:05;;;;;;;7.37;5.35;;;;;;;0.69;49.55;97888.85;1751336;82;21404;-83
2022/03/10 11:09:32;;;;;;;7.50;5.67;;;;;;;0.66;48.86;97895.88;1752127;82;21060;-83
2022/03/10 11:11:57;;;;;;;7.15;5.58;;;;;;;0.69;49.49;97895.70;1749727;80;21148;-83
2022/03/10 11:14:24;;;;;;;6.97;5.65;;;;;;;0.75;49.29;97888.95;1752048;82;21021;-83
2022/03/10 11:16:49;;;;;;;8.63;6.33;;;;;;;0.82;49.13;97884.72;1751341;81;21364;-83
2022/03/10 11:19:17;;;;;;;7.45;5.50;;;;;;;0.84;49.63;97890.56;1751294;82;20993;-84
2022/03/10 11:22:08;;;;;;;7.53;5.95;;;;;;;0.71;48.91;97855.05;1752000;82;21482;-83
2022/03/10 11:25:06;;;;;;;5.87;5.25;;;;;;;0.94;47.37;97887.48;1749170;82;21041;-83
2022/03/10 11:27:51;;;;;;;7.97;5.90;;;;;;;0.85;48.80;97882.44;1738225;82;21022;-83
2022/03/10 11:30:18;;;;;;;7.67;5.95;;;;;;;0.87;49.10;97885.73;1738620;82;21070;-83
2022/03/10 11:32:48;;;;;;;6.58;4.80;;;;;;;0.95;48.84;97892.52;1738610;82;20997;-83
2022/03/10 11:35:17;;;;;;;8.18;5.67;;;;;;;0.96;46.22;97886.94;1709867;82;21021;-83